sensor_id;sensor_type;location;lat;lon;timestamp;temperature;humidity
57108;DHT22;42987;52.916;6.542;2023-04-06T00:02:05;2.90;95.10
57108;DHT22;42987;52.916;6.542;2023-04-06T00:04:31;2.90;95.10
57108;DHT22;42987;52.916;6.542;2023-04-06T00:06:57;2.90;95.00
57108;DHT22;42987;52.916;6.542;2023-04-06T00:09:23;2.90;94.80
57108;DHT22;42987;52.916;6.542;2023-04-06T00:11:49;2.80;95.00
57108;DHT22;42987;52.916;6.542;2023-04-06T00:14:15;2.80;95.40
57108;DHT22;42987;52.916;6.542;2023-04-06T00:16:43;2.70;95.70
57108;DHT22;42987;52.916;6.542;2023-04-06T00:19:08;2.70;96.00
57108;DHT22;42987;52.916;6.542;2023-04-06T00:21:34;2.70;96.20
57108;DHT22;42987;52.916;6.542;2023-04-06T00:24:00;2.70;96.20
57108;DHT22;42987;52.916;6.542;2023-04-06T00:26:26;2.70;96.40
57108;DHT22;42987;52.916;6.542;2023-04-06T00:28:52;2.70;96.60
57108;DHT22;42987;52.916;6.542;2023-04-06T00:31:18;2.60;96.60
57108;DHT22;42987;52.916;6.542;2023-04-06T00:33:44;2.60;96.60
57108;DHT22;42987;52.916;6.542;2023-04-06T00:36:10;2.60;96.60
57108;DHT22;42987;52.916;6.542;2023-04-06T00:38:35;2.60;96.60
57108;DHT22;42987;52.916;6.542;2023-04-06T00:41:03;2.60;96.90
57108;DHT22;42987;52.916;6.542;2023-04-06T00:43:32;2.50;97.10
57108;DHT22;42987;52.916;6.542;2023-04-06T00:45:58;2.50;97.00
57108;DHT22;42987;52.916;6.542;2023-04-06T00:48:23;2.40;97.10
57108;DHT22;42987;52.916;6.542;2023-04-06T00:50:52;2.40;97.40
57108;DHT22;42987;52.916;6.542;2023-04-06T00:53:18;2.30;97.50
57108;DHT22;42987;52.916;6.542;2023-04-06T00:55:44;2.30;97.60
57108;DHT22;42987;52.916;6.542;2023-04-06T00:58:10;2.30;97.60
57108;DHT22;42987;52.916;6.542;2023-04-06T01:00:39;2.30;97.70
57108;DHT22;42987;52.916;6.542;2023-04-06T01:03:05;2.20;97.70
57108;DHT22;42987;52.916;6.542;2023-04-06T01:05:36;2.20;98.10
57108;DHT22;42987;52.916;6.542;2023-04-06T01:08:06;2.20;98.20
57108;DHT22;42987;52.916;6.542;2023-04-06T01:10:32;2.10;98.30
57108;DHT22;42987;52.916;6.542;2023-04-06T01:12:58;2.10;98.60
57108;DHT22;42987;52.916;6.542;2023-04-06T01:15:24;2.00;98.90
57108;DHT22;42987;52.916;6.542;2023-04-06T01:17:51;2.00;99.00
57108;DHT22;42987;52.916;6.542;2023-04-06T01:20:20;2.00;99.00
57108;DHT22;42987;52.916;6.542;2023-04-06T01:22:46;2.00;99.10
57108;DHT22;42987;52.916;6.542;2023-04-06T01:25:12;2.00;99.50
57108;DHT22;42987;52.916;6.542;2023-04-06T01:27:40;2.00;99.60
57108;DHT22;42987;52.916;6.542;2023-04-06T01:30:07;2.00;99.60
57108;DHT22;42987;52.916;6.542;2023-04-06T01:32:33;2.00;99.70
57108;DHT22;42987;52.916;6.542;2023-04-06T01:35:02;2.00;99.90
57108;DHT22;42987;52.916;6.542;2023-04-06T01:37:28;2.00;99.90
57108;DHT22;42987;52.916;6.542;2023-04-06T01:39:57;2.00;99.90
57108;DHT22;42987;52.916;6.542;2023-04-06T01:42:23;2.00;99.90
57108;DHT22;42987;52.916;6.542;2023-04-06T01:44:49;2.00;99.90
57108;DHT22;42987;52.916;6.542;2023-04-06T01:47:18;2.00;99.90
57108;DHT22;42987;52.916;6.542;2023-04-06T01:49:43;2.00;99.90
57108;DHT22;42987;52.916;6.542;2023-04-06T01:52:09;1.90;99.90
57108;DHT22;42987;52.916;6.542;2023-04-06T01:54:35;2.00;99.90
57108;DHT22;42987;52.916;6.542;2023-04-06T01:57:01;1.90;99.90
57108;DHT22;42987;52.916;6.542;2023-04-06T01:59:27;2.00;99.90
57108;DHT22;42987;52.916;6.542;2023-04-06T02:01:52;2.00;99.90
57108;DHT22;42987;52.916;6.542;2023-04-06T02:04:18;2.00;99.90
57108;DHT22;42987;52.916;6.542;2023-04-06T02:06:44;1.90;99.90
57108;DHT22;42987;52.916;6.542;2023-04-06T02:09:10;1.90;99.90
57108;DHT22;42987;52.916;6.542;2023-04-06T02:11:36;1.90;99.90
57108;DHT22;42987;52.916;6.542;2023-04-06T02:14:02;1.80;99.90
57108;DHT22;42987;52.916;6.542;2023-04-06T02:16:27;1.80;99.90
57108;DHT22;42987;52.916;6.542;2023-04-06T02:18:53;1.90;99.90
57108;DHT22;42987;52.916;6.542;2023-04-06T02:21:19;1.90;99.90
57108;DHT22;42987;52.916;6.542;2023-04-06T02:23:48;1.90;99.90
57108;DHT22;42987;52.916;6.542;2023-04-06T02:26:15;1.90;99.90
57108;DHT22;42987;52.916;6.542;2023-04-06T02:28:41;1.90;99.90
57108;DHT22;42987;52.916;6.542;2023-04-06T02:31:08;1.90;99.90
57108;DHT22;42987;52.916;6.542;2023-04-06T02:33:34;1.90;99.90
57108;DHT22;42987;52.916;6.542;2023-04-06T02:36:00;2.00;99.90
57108;DHT22;42987;52.916;6.542;2023-04-06T02:38:26;1.90;99.90
57108;DHT22;42987;52.916;6.542;2023-04-06T02:40:51;1.90;99.90
57108;DHT22;42987;52.916;6.542;2023-04-06T02:43:18;1.90;99.90
57108;DHT22;42987;52.916;6.542;2023-04-06T02:45:44;1.90;99.90
57108;DHT22;42987;52.916;6.542;2023-04-06T02:48:10;1.90;99.90
57108;DHT22;42987;52.916;6.542;2023-04-06T02:50:36;1.90;99.90
57108;DHT22;42987;52.916;6.542;2023-04-06T02:53:02;1.90;99.90
57108;DHT22;42987;52.916;6.542;2023-04-06T02:55:27;1.90;99.90
57108;DHT22;42987;52.916;6.542;2023-04-06T02:57:53;1.90;99.90
57108;DHT22;42987;52.916;6.542;2023-04-06T03:00:19;1.80;99.90
57108;DHT22;42987;52.916;6.542;2023-04-06T03:02:45;1.80;99.90
57108;DHT22;42987;52.916;6.542;2023-04-06T03:05:10;1.80;99.90
57108;DHT22;42987;52.916;6.542;2023-04-06T03:07:36;1.70;99.90
57108;DHT22;42987;52.916;6.542;2023-04-06T03:10:02;1.70;99.90
57108;DHT22;42987;52.916;6.542;2023-04-06T03:12:28;1.70;99.90
57108;DHT22;42987;52.916;6.542;2023-04-06T03:14:54;1.70;99.90
57108;DHT22;42987;52.916;6.542;2023-04-06T03:17:20;1.70;99.90
57108;DHT22;42987;52.916;6.542;2023-04-06T03:19:45;1.60;99.90
57108;DHT22;42987;52.916;6.542;2023-04-06T03:22:11;1.60;99.90
57108;DHT22;42987;52.916;6.542;2023-04-06T03:24:37;1.60;99.90
57108;DHT22;42987;52.916;6.542;2023-04-06T03:27:03;1.60;99.90
57108;DHT22;42987;52.916;6.542;2023-04-06T03:29:29;1.60;99.90
57108;DHT22;42987;52.916;6.542;2023-04-06T03:31:55;1.60;99.90
57108;DHT22;42987;52.916;6.542;2023-04-06T03:34:21;1.60;99.90
57108;DHT22;42987;52.916;6.542;2023-04-06T03:36:47;1.60;99.90
57108;DHT22;42987;52.916;6.542;2023-04-06T03:39:13;1.60;99.90
57108;DHT22;42987;52.916;6.542;2023-04-06T03:41:39;1.60;99.90
57108;DHT22;42987;52.916;6.542;2023-04-06T03:44:05;1.60;99.90
57108;DHT22;42987;52.916;6.542;2023-04-06T03:46:31;1.60;99.90
57108;DHT22;42987;52.916;6.542;2023-04-06T03:48:57;1.50;99.90
57108;DHT22;42987;52.916;6.542;2023-04-06T03:51:23;1.60;99.90
57108;DHT22;42987;52.916;6.542;2023-04-06T03:53:49;1.60;99.90
57108;DHT22;42987;52.916;6.542;2023-04-06T03:56:17;1.60;99.90
57108;DHT22;42987;52.916;6.542;2023-04-06T03:58:43;1.60;99.90
57108;DHT22;42987;52.916;6.542;2023-04-06T04:01:11;1.60;99.90
57108;DHT22;42987;52.916;6.542;2023-04-06T04:03:37;1.50;99.90
57108;DHT22;42987;52.916;6.542;2023-04-06T04:06:02;1.50;99.90
57108;DHT22;42987;52.916;6.542;2023-04-06T04:08:28;1.50;99.90
57108;DHT22;42987;52.916;6.542;2023-04-06T04:10:57;1.50;99.90
57108;DHT22;42987;52.916;6.542;2023-04-06T04:13:23;1.40;99.90
57108;DHT22;42987;52.916;6.542;2023-04-06T04:15:49;1.40;99.90
57108;DHT22;42987;52.916;6.542;2023-04-06T04:18:15;1.40;99.90
57108;DHT22;42987;52.916;6.542;2023-04-06T04:20:41;1.30;99.90
57108;DHT22;42987;52.916;6.542;2023-04-06T04:23:07;1.30;99.90
57108;DHT22;42987;52.916;6.542;2023-04-06T04:25:32;1.30;99.90
57108;DHT22;42987;52.916;6.542;2023-04-06T04:27:58;1.30;99.90
57108;DHT22;42987;52.916;6.542;2023-04-06T04:30:24;1.30;99.90
57108;DHT22;42987;52.916;6.542;2023-04-06T04:32:50;1.40;99.90
57108;DHT22;42987;52.916;6.542;2023-04-06T04:35:16;1.30;99.90
57108;DHT22;42987;52.916;6.542;2023-04-06T04:37:42;1.30;99.90
57108;DHT22;42987;52.916;6.542;2023-04-06T04:40:08;1.30;99.90
57108;DHT22;42987;52.916;6.542;2023-04-06T04:42:34;1.30;99.90
57108;DHT22;42987;52.916;6.542;2023-04-06T04:45:03;1.30;99.90
57108;DHT22;42987;52.916;6.542;2023-04-06T04:47:30;1.20;99.90
57108;DHT22;42987;52.916;6.542;2023-04-06T04:49:55;1.20;99.90
57108;DHT22;42987;52.916;6.542;2023-04-06T04:52:21;1.20;99.90
57108;DHT22;42987;52.916;6.542;2023-04-06T04:54:47;1.20;99.90
57108;DHT22;42987;52.916;6.542;2023-04-06T04:57:13;1.20;99.90
57108;DHT22;42987;52.916;6.542;2023-04-06T04:59:39;1.20;99.90
57108;DHT22;42987;52.916;6.542;2023-04-06T05:02:07;1.20;99.90
57108;DHT22;42987;52.916;6.542;2023-04-06T05:04:33;1.20;99.90
57108;DHT22;42987;52.916;6.542;2023-04-06T05:07:08;1.20;99.90
57108;DHT22;42987;52.916;6.542;2023-04-06T05:09:35;1.20;99.90
57108;DHT22;42987;52.916;6.542;2023-04-06T05:12:01;1.30;99.90
57108;DHT22;42987;52.916;6.542;2023-04-06T05:14:27;1.40;99.90
57108;DHT22;42987;52.916;6.542;2023-04-06T05:16:53;1.50;99.90
57108;DHT22;42987;52.916;6.542;2023-04-06T05:19:19;1.50;99.90
57108;DHT22;42987;52.916;6.542;2023-04-06T05:21:46;1.40;99.90
57108;DHT22;42987;52.916;6.542;2023-04-06T05:24:11;1.40;99.90
57108;DHT22;42987;52.916;6.542;2023-04-06T05:26:37;1.40;99.90
57108;DHT22;42987;52.916;6.542;2023-04-06T05:29:03;1.40;99.90
57108;DHT22;42987;52.916;6.542;2023-04-06T05:31:32;1.40;99.90
57108;DHT22;42987;52.916;6.542;2023-04-06T05:33:58;1.50;99.90
57108;DHT22;42987;52.916;6.542;2023-04-06T05:36:27;1.50;99.90
57108;DHT22;42987;52.916;6.542;2023-04-06T05:38:52;1.50;99.90
57108;DHT22;42987;52.916;6.542;2023-04-06T05:41:18;1.60;99.90
57108;DHT22;42987;52.916;6.542;2023-04-06T05:43:45;1.60;99.90
57108;DHT22;42987;52.916;6.542;2023-04-06T05:46:11;1.70;99.90
57108;DHT22;42987;52.916;6.542;2023-04-06T05:48:37;1.70;99.90
57108;DHT22;42987;52.916;6.542;2023-04-06T05:51:02;1.70;99.90
57108;DHT22;42987;52.916;6.542;2023-04-06T05:53:32;1.80;99.90
57108;DHT22;42987;52.916;6.542;2023-04-06T05:56:01;1.80;99.90
57108;DHT22;42987;52.916;6.542;2023-04-06T05:58:27;1.90;99.90
57108;DHT22;42987;52.916;6.542;2023-04-06T06:01:03;1.90;99.90
57108;DHT22;42987;52.916;6.542;2023-04-06T06:03:30;1.90;99.90
57108;DHT22;42987;52.916;6.542;2023-04-06T06:06:03;2.00;99.90
57108;DHT22;42987;52.916;6.542;2023-04-06T06:08:32;2.00;99.90
57108;DHT22;42987;52.916;6.542;2023-04-06T06:11:02;2.10;99.90
57108;DHT22;42987;52.916;6.542;2023-04-06T06:13:27;2.10;99.90
57108;DHT22;42987;52.916;6.542;2023-04-06T06:15:53;2.20;99.90
57108;DHT22;42987;52.916;6.542;2023-04-06T06:18:19;2.20;99.90
57108;DHT22;42987;52.916;6.542;2023-04-06T06:20:45;2.30;99.90
57108;DHT22;42987;52.916;6.542;2023-04-06T06:23:11;2.40;99.90
57108;DHT22;42987;52.916;6.542;2023-04-06T06:25:37;2.50;99.90
57108;DHT22;42987;52.916;6.542;2023-04-06T06:28:02;2.50;99.90
57108;DHT22;42987;52.916;6.542;2023-04-06T06:30:31;2.60;99.90
57108;DHT22;42987;52.916;6.542;2023-04-06T06:32:56;2.70;99.90
57108;DHT22;42987;52.916;6.542;2023-04-06T06:35:23;2.70;99.90
57108;DHT22;42987;52.916;6.542;2023-04-06T06:37:49;2.80;99.90
57108;DHT22;42987;52.916;6.542;2023-04-06T06:40:15;2.90;99.90
57108;DHT22;42987;52.916;6.542;2023-04-06T06:42:43;2.90;99.90
57108;DHT22;42987;52.916;6.542;2023-04-06T06:45:09;3.00;99.90
57108;DHT22;42987;52.916;6.542;2023-04-06T06:47:35;3.10;99.90
57108;DHT22;42987;52.916;6.542;2023-04-06T06:50:01;3.10;99.90
57108;DHT22;42987;52.916;6.542;2023-04-06T06:52:28;3.30;99.90
57108;DHT22;42987;52.916;6.542;2023-04-06T06:54:54;3.30;99.90
57108;DHT22;42987;52.916;6.542;2023-04-06T06:57:20;3.40;99.90
57108;DHT22;42987;52.916;6.542;2023-04-06T06:59:46;3.50;99.90
57108;DHT22;42987;52.916;6.542;2023-04-06T07:02:12;3.60;99.90
57108;DHT22;42987;52.916;6.542;2023-04-06T07:04:37;3.70;99.90
57108;DHT22;42987;52.916;6.542;2023-04-06T07:07:06;3.80;99.90
57108;DHT22;42987;52.916;6.542;2023-04-06T07:09:38;3.90;99.90
57108;DHT22;42987;52.916;6.542;2023-04-06T07:12:16;4.00;99.90
57108;DHT22;42987;52.916;6.542;2023-04-06T07:14:42;4.10;99.90
57108;DHT22;42987;52.916;6.542;2023-04-06T07:17:08;4.30;99.90
57108;DHT22;42987;52.916;6.542;2023-04-06T07:19:35;4.40;99.90
57108;DHT22;42987;52.916;6.542;2023-04-06T07:22:01;4.50;99.90
57108;DHT22;42987;52.916;6.542;2023-04-06T07:24:38;4.70;99.90
57108;DHT22;42987;52.916;6.542;2023-04-06T07:27:06;4.80;99.90
57108;DHT22;42987;52.916;6.542;2023-04-06T07:29:35;5.00;99.90
57108;DHT22;42987;52.916;6.542;2023-04-06T07:32:02;5.10;99.90
57108;DHT22;42987;52.916;6.542;2023-04-06T07:34:28;5.30;99.90
57108;DHT22;42987;52.916;6.542;2023-04-06T07:36:54;5.40;99.90
57108;DHT22;42987;52.916;6.542;2023-04-06T07:39:20;5.60;99.90
57108;DHT22;42987;52.916;6.542;2023-04-06T07:41:46;5.70;99.80
57108;DHT22;42987;52.916;6.542;2023-04-06T07:44:12;5.90;99.60
57108;DHT22;42987;52.916;6.542;2023-04-06T07:46:40;6.00;99.50
57108;DHT22;42987;52.916;6.542;2023-04-06T07:49:06;6.20;99.30
57108;DHT22;42987;52.916;6.542;2023-04-06T07:51:32;6.40;98.60
57108;DHT22;42987;52.916;6.542;2023-04-06T07:54:01;6.50;98.10
57108;DHT22;42987;52.916;6.542;2023-04-06T07:56:27;6.70;97.80
57108;DHT22;42987;52.916;6.542;2023-04-06T07:58:53;6.80;97.50
57108;DHT22;42987;52.916;6.542;2023-04-06T08:01:28;6.90;97.00
57108;DHT22;42987;52.916;6.542;2023-04-06T08:03:54;7.10;96.80
57108;DHT22;42987;52.916;6.542;2023-04-06T08:06:21;7.20;96.30
57108;DHT22;42987;52.916;6.542;2023-04-06T08:08:47;7.50;95.50
57108;DHT22;42987;52.916;6.542;2023-04-06T08:11:12;7.70;94.60
57108;DHT22;42987;52.916;6.542;2023-04-06T08:13:38;7.80;94.00
57108;DHT22;42987;52.916;6.542;2023-04-06T08:16:04;8.00;94.10
57108;DHT22;42987;52.916;6.542;2023-04-06T08:18:30;8.20;93.90
57108;DHT22;42987;52.916;6.542;2023-04-06T08:20:56;8.30;93.30
57108;DHT22;42987;52.916;6.542;2023-04-06T08:23:22;8.50;92.80
57108;DHT22;42987;52.916;6.542;2023-04-06T08:25:48;8.70;92.00
57108;DHT22;42987;52.916;6.542;2023-04-06T08:28:14;8.90;91.60
57108;DHT22;42987;52.916;6.542;2023-04-06T08:30:43;9.10;91.10
57108;DHT22;42987;52.916;6.542;2023-04-06T08:33:09;9.20;90.70
57108;DHT22;42987;52.916;6.542;2023-04-06T08:35:40;9.20;89.20
57108;DHT22;42987;52.916;6.542;2023-04-06T08:38:06;9.20;88.80
57108;DHT22;42987;52.916;6.542;2023-04-06T08:40:38;9.20;88.10
57108;DHT22;42987;52.916;6.542;2023-04-06T08:43:07;9.40;86.40
57108;DHT22;42987;52.916;6.542;2023-04-06T08:45:35;9.50;85.60
57108;DHT22;42987;52.916;6.542;2023-04-06T08:48:03;9.70;84.00
57108;DHT22;42987;52.916;6.542;2023-04-06T08:50:30;9.90;82.50
57108;DHT22;42987;52.916;6.542;2023-04-06T08:52:57;10.10;80.90
57108;DHT22;42987;52.916;6.542;2023-04-06T08:55:22;10.30;81.30
57108;DHT22;42987;52.916;6.542;2023-04-06T08:57:49;10.50;81.40
57108;DHT22;42987;52.916;6.542;2023-04-06T09:00:15;10.60;79.20
57108;DHT22;42987;52.916;6.542;2023-04-06T09:02:46;10.70;79.10
57108;DHT22;42987;52.916;6.542;2023-04-06T09:05:12;10.60;77.50
57108;DHT22;42987;52.916;6.542;2023-04-06T09:07:38;10.50;77.90
57108;DHT22;42987;52.916;6.542;2023-04-06T09:10:14;10.50;78.10
57108;DHT22;42987;52.916;6.542;2023-04-06T09:12:44;10.50;78.00
57108;DHT22;42987;52.916;6.542;2023-04-06T09:15:20;10.40;77.80
57108;DHT22;42987;52.916;6.542;2023-04-06T09:17:46;10.40;77.40
57108;DHT22;42987;52.916;6.542;2023-04-06T09:20:12;10.40;76.30
57108;DHT22;42987;52.916;6.542;2023-04-06T09:22:40;10.30;75.40
57108;DHT22;42987;52.916;6.542;2023-04-06T09:25:08;10.40;76.60
57108;DHT22;42987;52.916;6.542;2023-04-06T09:27:38;10.50;77.00
57108;DHT22;42987;52.916;6.542;2023-04-06T09:30:09;10.60;77.20
57108;DHT22;42987;52.916;6.542;2023-04-06T09:32:49;10.70;76.20
57108;DHT22;42987;52.916;6.542;2023-04-06T09:35:17;10.70;75.00
57108;DHT22;42987;52.916;6.542;2023-04-06T09:37:46;10.70;75.80
57108;DHT22;42987;52.916;6.542;2023-04-06T09:40:13;10.80;76.90
57108;DHT22;42987;52.916;6.542;2023-04-06T09:42:41;10.90;76.00
57108;DHT22;42987;52.916;6.542;2023-04-06T09:45:07;11.00;75.00
57108;DHT22;42987;52.916;6.542;2023-04-06T09:47:36;11.10;75.30
57108;DHT22;42987;52.916;6.542;2023-04-06T09:50:05;11.10;74.70
57108;DHT22;42987;52.916;6.542;2023-04-06T09:52:37;11.10;74.30
57108;DHT22;42987;52.916;6.542;2023-04-06T09:55:05;11.00;73.80
57108;DHT22;42987;52.916;6.542;2023-04-06T09:57:50;11.00;72.90
57108;DHT22;42987;52.916;6.542;2023-04-06T10:00:22;11.00;73.10
57108;DHT22;42987;52.916;6.542;2023-04-06T10:03:36;11.00;73.50
57108;DHT22;42987;52.916;6.542;2023-04-06T10:06:07;11.10;74.90
57108;DHT22;42987;52.916;6.542;2023-04-06T10:08:37;11.10;73.50
57108;DHT22;42987;52.916;6.542;2023-04-06T10:11:06;11.20;72.60
57108;DHT22;42987;52.916;6.542;2023-04-06T10:13:32;11.20;72.90
57108;DHT22;42987;52.916;6.542;2023-04-06T10:16:00;11.30;72.80
57108;DHT22;42987;52.916;6.542;2023-04-06T10:18:27;11.40;72.60
57108;DHT22;42987;52.916;6.542;2023-04-06T10:21:11;11.60;72.50
57108;DHT22;42987;52.916;6.542;2023-04-06T10:23:52;11.70;72.10
57108;DHT22;42987;52.916;6.542;2023-04-06T10:26:21;11.80;70.80
57108;DHT22;42987;52.916;6.542;2023-04-06T10:28:48;11.90;71.40
57108;DHT22;42987;52.916;6.542;2023-04-06T10:31:14;11.90;71.60
57108;DHT22;42987;52.916;6.542;2023-04-06T10:33:40;12.10;70.80
57108;DHT22;42987;52.916;6.542;2023-04-06T10:38:38;12.30;69.20
57108;DHT22;42987;52.916;6.542;2023-04-06T10:41:08;12.20;69.50
57108;DHT22;42987;52.916;6.542;2023-04-06T10:43:36;12.10;69.00
57108;DHT22;42987;52.916;6.542;2023-04-06T10:46:03;12.20;70.00
57108;DHT22;42987;52.916;6.542;2023-04-06T10:48:45;12.20;69.60
57108;DHT22;42987;52.916;6.542;2023-04-06T10:51:15;12.30;66.40
57108;DHT22;42987;52.916;6.542;2023-04-06T10:53:45;12.30;65.80
57108;DHT22;42987;52.916;6.542;2023-04-06T10:56:17;12.40;65.60
57108;DHT22;42987;52.916;6.542;2023-04-06T10:58:54;12.50;65.30
57108;DHT22;42987;52.916;6.542;2023-04-06T11:01:24;12.50;63.70
57108;DHT22;42987;52.916;6.542;2023-04-06T11:03:56;12.50;64.50
57108;DHT22;42987;52.916;6.542;2023-04-06T11:06:26;12.60;64.30
57108;DHT22;42987;52.916;6.542;2023-04-06T11:08:53;12.60;63.00
57108;DHT22;42987;52.916;6.542;2023-04-06T11:11:23;12.60;62.80
57108;DHT22;42987;52.916;6.542;2023-04-06T11:14:00;12.70;64.40
57108;DHT22;42987;52.916;6.542;2023-04-06T11:16:33;12.80;64.50
57108;DHT22;42987;52.916;6.542;2023-04-06T11:19:03;12.80;63.70
57108;DHT22;42987;52.916;6.542;2023-04-06T11:21:45;12.80;62.80
57108;DHT22;42987;52.916;6.542;2023-04-06T11:24:16;12.70;62.00
57108;DHT22;42987;52.916;6.542;2023-04-06T11:26:48;12.60;61.80
57108;DHT22;42987;52.916;6.542;2023-04-06T11:29:17;12.50;61.90
57108;DHT22;42987;52.916;6.542;2023-04-06T11:31:45;12.40;61.80
57108;DHT22;42987;52.916;6.542;2023-04-06T11:34:13;12.40;62.00
57108;DHT22;42987;52.916;6.542;2023-04-06T11:36:43;12.40;62.60
57108;DHT22;42987;52.916;6.542;2023-04-06T11:39:11;12.40;61.60
57108;DHT22;42987;52.916;6.542;2023-04-06T11:41:37;12.50;62.20
57108;DHT22;42987;52.916;6.542;2023-04-06T11:44:03;12.50;61.40
57108;DHT22;42987;52.916;6.542;2023-04-06T11:46:30;12.50;60.70
57108;DHT22;42987;52.916;6.542;2023-04-06T11:49:03;12.50;61.10
57108;DHT22;42987;52.916;6.542;2023-04-06T11:51:35;12.60;59.60
57108;DHT22;42987;52.916;6.542;2023-04-06T11:54:01;12.60;59.40
57108;DHT22;42987;52.916;6.542;2023-04-06T11:56:28;12.60;58.40
57108;DHT22;42987;52.916;6.542;2023-04-06T11:58:55;12.60;58.10
57108;DHT22;42987;52.916;6.542;2023-04-06T12:01:22;12.50;59.20
57108;DHT22;42987;52.916;6.542;2023-04-06T12:03:49;12.50;60.20
57108;DHT22;42987;52.916;6.542;2023-04-06T12:06:15;12.60;60.30
57108;DHT22;42987;52.916;6.542;2023-04-06T12:08:41;12.60;59.60
57108;DHT22;42987;52.916;6.542;2023-04-06T12:11:07;12.60;60.70
57108;DHT22;42987;52.916;6.542;2023-04-06T12:13:32;12.70;60.30
57108;DHT22;42987;52.916;6.542;2023-04-06T12:15:58;12.80;60.40
57108;DHT22;42987;52.916;6.542;2023-04-06T12:18:24;12.80;60.00
57108;DHT22;42987;52.916;6.542;2023-04-06T12:20:51;12.90;58.80
57108;DHT22;42987;52.916;6.542;2023-04-06T12:23:18;13.00;58.70
57108;DHT22;42987;52.916;6.542;2023-04-06T12:25:47;13.00;58.10
57108;DHT22;42987;52.916;6.542;2023-04-06T12:28:13;13.00;58.10
57108;DHT22;42987;52.916;6.542;2023-04-06T12:30:39;13.00;57.60
57108;DHT22;42987;52.916;6.542;2023-04-06T12:33:06;13.00;58.80
57108;DHT22;42987;52.916;6.542;2023-04-06T12:35:36;13.00;59.60
57108;DHT22;42987;52.916;6.542;2023-04-06T12:38:03;13.10;59.00
57108;DHT22;42987;52.916;6.542;2023-04-06T12:40:35;13.10;59.10
57108;DHT22;42987;52.916;6.542;2023-04-06T12:43:01;13.20;59.50
57108;DHT22;42987;52.916;6.542;2023-04-06T12:45:27;13.30;60.00
57108;DHT22;42987;52.916;6.542;2023-04-06T12:47:56;13.40;58.90
57108;DHT22;42987;52.916;6.542;2023-04-06T12:50:21;13.40;58.70
57108;DHT22;42987;52.916;6.542;2023-04-06T12:52:47;13.40;60.20
57108;DHT22;42987;52.916;6.542;2023-04-06T12:55:13;13.40;60.00
57108;DHT22;42987;52.916;6.542;2023-04-06T12:57:39;13.50;59.90
57108;DHT22;42987;52.916;6.542;2023-04-06T13:00:06;13.50;59.70
57108;DHT22;42987;52.916;6.542;2023-04-06T13:02:39;13.50;59.50
57108;DHT22;42987;52.916;6.542;2023-04-06T13:05:06;13.60;60.30
57108;DHT22;42987;52.916;6.542;2023-04-06T13:07:34;13.70;60.60
57108;DHT22;42987;52.916;6.542;2023-04-06T13:10:00;13.80;59.20
57108;DHT22;42987;52.916;6.542;2023-04-06T13:12:26;13.70;59.30
57108;DHT22;42987;52.916;6.542;2023-04-06T13:14:52;13.70;59.20
57108;DHT22;42987;52.916;6.542;2023-04-06T13:17:18;13.70;59.00
57108;DHT22;42987;52.916;6.542;2023-04-06T13:19:44;13.60;59.80
57108;DHT22;42987;52.916;6.542;2023-04-06T13:22:13;13.60;60.70
57108;DHT22;42987;52.916;6.542;2023-04-06T13:24:39;13.60;61.10
57108;DHT22;42987;52.916;6.542;2023-04-06T13:27:05;13.60;62.30
57108;DHT22;42987;52.916;6.542;2023-04-06T13:29:31;13.60;62.60
57108;DHT22;42987;52.916;6.542;2023-04-06T13:31:57;13.60;63.10
57108;DHT22;42987;52.916;6.542;2023-04-06T13:34:23;13.50;63.50
57108;DHT22;42987;52.916;6.542;2023-04-06T13:36:49;13.30;63.70
57108;DHT22;42987;52.916;6.542;2023-04-06T13:39:15;13.20;63.80
57108;DHT22;42987;52.916;6.542;2023-04-06T13:41:40;13.00;63.50
57108;DHT22;42987;52.916;6.542;2023-04-06T13:44:06;13.00;64.40
57108;DHT22;42987;52.916;6.542;2023-04-06T13:46:32;12.90;65.70
57108;DHT22;42987;52.916;6.542;2023-04-06T13:48:58;12.80;65.50
57108;DHT22;42987;52.916;6.542;2023-04-06T13:51:24;12.80;65.90
57108;DHT22;42987;52.916;6.542;2023-04-06T13:53:49;12.70;65.90
57108;DHT22;42987;52.916;6.542;2023-04-06T13:56:18;12.60;66.50
57108;DHT22;42987;52.916;6.542;2023-04-06T13:58:43;12.50;66.70
57108;DHT22;42987;52.916;6.542;2023-04-06T14:01:09;12.40;67.70
57108;DHT22;42987;52.916;6.542;2023-04-06T14:03:36;12.30;67.70
57108;DHT22;42987;52.916;6.542;2023-04-06T14:06:11;12.20;67.80
57108;DHT22;42987;52.916;6.542;2023-04-06T14:08:37;12.10;68.50
57108;DHT22;42987;52.916;6.542;2023-04-06T14:11:03;12.10;69.50
57108;DHT22;42987;52.916;6.542;2023-04-06T14:13:30;12.00;69.90
57108;DHT22;42987;52.916;6.542;2023-04-06T14:15:55;12.00;70.10
57108;DHT22;42987;52.916;6.542;2023-04-06T14:18:22;12.10;69.90
57108;DHT22;42987;52.916;6.542;2023-04-06T14:20:55;12.10;69.10
57108;DHT22;42987;52.916;6.542;2023-04-06T14:23:21;12.10;69.60
57108;DHT22;42987;52.916;6.542;2023-04-06T14:25:47;12.10;69.70
57108;DHT22;42987;52.916;6.542;2023-04-06T14:28:13;12.10;69.70
57108;DHT22;42987;52.916;6.542;2023-04-06T14:30:40;12.10;69.10
57108;DHT22;42987;52.916;6.542;2023-04-06T14:33:05;12.00;69.30
57108;DHT22;42987;52.916;6.542;2023-04-06T14:35:32;12.00;69.90
57108;DHT22;42987;52.916;6.542;2023-04-06T14:37:58;12.00;70.60
57108;DHT22;42987;52.916;6.542;2023-04-06T14:40:24;12.00;71.10
57108;DHT22;42987;52.916;6.542;2023-04-06T14:42:50;11.90;70.70
57108;DHT22;42987;52.916;6.542;2023-04-06T14:45:17;11.90;72.20
57108;DHT22;42987;52.916;6.542;2023-04-06T14:47:45;11.80;71.90
57108;DHT22;42987;52.916;6.542;2023-04-06T14:50:11;11.80;71.90
57108;DHT22;42987;52.916;6.542;2023-04-06T14:52:36;11.60;72.90
57108;DHT22;42987;52.916;6.542;2023-04-06T14:55:02;11.50;74.60
57108;DHT22;42987;52.916;6.542;2023-04-06T14:57:32;11.40;75.10
57108;DHT22;42987;52.916;6.542;2023-04-06T15:00:02;11.20;75.90
57108;DHT22;42987;52.916;6.542;2023-04-06T15:02:28;11.20;76.30
57108;DHT22;42987;52.916;6.542;2023-04-06T15:04:58;11.10;77.10
57108;DHT22;42987;52.916;6.542;2023-04-06T15:07:27;11.10;77.70
57108;DHT22;42987;52.916;6.542;2023-04-06T15:09:53;11.00;77.80
57108;DHT22;42987;52.916;6.542;2023-04-06T15:12:18;11.00;78.90
57108;DHT22;42987;52.916;6.542;2023-04-06T15:14:44;11.00;80.60
57108;DHT22;42987;52.916;6.542;2023-04-06T15:17:10;10.90;82.30
57108;DHT22;42987;52.916;6.542;2023-04-06T15:19:36;10.90;83.80
57108;DHT22;42987;52.916;6.542;2023-04-06T15:22:02;10.80;85.30
57108;DHT22;42987;52.916;6.542;2023-04-06T15:24:27;10.70;87.20
57108;DHT22;42987;52.916;6.542;2023-04-06T15:26:53;10.70;89.00
57108;DHT22;42987;52.916;6.542;2023-04-06T15:29:19;10.50;90.00
57108;DHT22;42987;52.916;6.542;2023-04-06T15:31:46;10.50;91.70
57108;DHT22;42987;52.916;6.542;2023-04-06T15:34:11;10.50;92.70
57108;DHT22;42987;52.916;6.542;2023-04-06T15:36:37;10.30;93.40
57108;DHT22;42987;52.916;6.542;2023-04-06T15:39:03;10.20;95.10
57108;DHT22;42987;52.916;6.542;2023-04-06T15:41:33;10.20;96.20
57108;DHT22;42987;52.916;6.542;2023-04-06T15:44:03;10.10;97.10